Accueil
METAR-TAF:

METAR-TAF

Aéroports :

Solenzara, France

Base aérienne 126 Solenzara

latitude: 41-55N, longitude: 009-24E, altitude: 8 m

Observation

Le bulletin a été fait il y a 31 minutes, à 01:30 UTC
Vent 3 kt de direction variable
Température 12°C
Humidité 76%
Pression 1013 hPa
Visibilité 10 km ou plus
pas de nuages en-dessous de 1500 mètres et pas de cumulonimbus.

METAR: LFKS 200130Z AUTO VRB03KT CAVOK 12/08 Q1013

Heure: 04:01 (02:01 UTC)

Prévision

Le bulletin a été fait il y a 12 heures et 1 minutes, à 14:00 UTC
Prévision valable du 19 à 15 UTC au 20 à 15 UTC
Vent 10 kt de est
Visibilité 10 km ou plus
Quelques nuages à une hauteur de 4000 ft
Nuages épars à une hauteur de 10000 ft
Nuages fragmentés à une hauteur de 18000 ft
Evoluant progressivement
du 19 à 16 UTC au 19 à 18 UTC
Vent 5 kt de ouest

TAF: LFKS 191400Z 1915/2015 08010KT 9999 FEW040 SCT100 BKN180 BECMG 1916/1918 27005KT

Observations et prévisions météorologiques de plus de 4000 aéroports (messages METAR et TAF).

Les stations disponibles sont représentées par des disques jaunes et rouges sur la carte.

Passer la souris dessus pour voir le nom de la station.

Cliquer dessus pour voir les observations et prévisions météorologiques.

Pour changer de carte: cliquez sur les boutons verts avec une croix noire pour zoomer, sur le bouton vert avec un tiret pour effectuer un zoom arrière, ou sur les flèches vertes pour les cartes adjacentes.


METAR-TAF: